createdAt,value
2023-03-18T00:00:12.402Z,0.00
2023-03-18T00:01:13.419Z,0.00
2023-03-18T00:02:12.421Z,0.00
2023-03-18T00:03:12.395Z,0.00
2023-03-18T00:04:12.389Z,0.00
2023-03-18T00:05:12.383Z,0.00
2023-03-18T00:06:12.370Z,0.00
2023-03-18T00:07:13.393Z,0.00
2023-03-18T00:08:12.370Z,0.00
2023-03-18T00:09:12.378Z,0.00
2023-03-18T00:10:12.386Z,0.00
2023-03-18T00:11:12.354Z,0.00
2023-03-18T00:12:12.368Z,0.00
2023-03-18T00:13:13.417Z,0.00
2023-03-18T00:14:12.331Z,0.00
2023-03-18T00:15:12.331Z,0.00
2023-03-18T00:16:12.360Z,0.00
2023-03-18T00:17:12.326Z,0.00
2023-03-18T00:18:12.325Z,0.00
2023-03-18T00:19:13.324Z,0.00
2023-03-18T00:20:12.320Z,0.00
2023-03-18T00:21:12.344Z,0.00
2023-03-18T00:22:12.296Z,0.00
2023-03-18T00:23:12.294Z,0.00
2023-03-18T00:24:12.286Z,0.00
2023-03-18T00:25:13.289Z,0.00
2023-03-18T00:26:12.296Z,0.00
2023-03-18T00:27:12.272Z,0.00
2023-03-18T00:28:12.276Z,0.00
2023-03-18T00:29:12.283Z,0.00
2023-03-18T00:30:12.328Z,0.00
2023-03-18T00:31:13.313Z,0.00
2023-03-18T00:32:12.278Z,0.00
2023-03-18T00:33:12.368Z,0.00
2023-03-18T00:34:12.666Z,0.00
2023-03-18T00:35:12.259Z,0.00
2023-03-18T00:36:12.249Z,0.00
2023-03-18T00:37:13.230Z,0.00
2023-03-18T00:38:12.236Z,0.00
2023-03-18T00:39:12.234Z,0.00
2023-03-18T00:40:12.226Z,0.00
2023-03-18T00:41:12.198Z,0.00
2023-03-18T00:42:12.237Z,0.00
2023-03-18T00:43:13.206Z,0.00
2023-03-18T00:44:12.190Z,0.00
2023-03-18T00:45:12.276Z,0.00
2023-03-18T00:46:12.174Z,0.00
2023-03-18T00:47:12.170Z,0.00
2023-03-18T00:48:12.183Z,0.00
2023-03-18T00:49:13.159Z,0.00
2023-03-18T00:50:12.145Z,0.00
2023-03-18T00:51:12.184Z,0.00
2023-03-18T00:52:12.158Z,0.00
2023-03-18T00:53:12.139Z,0.00
2023-03-18T00:54:12.129Z,0.00
2023-03-18T00:55:13.161Z,0.00
2023-03-18T00:56:12.136Z,0.00
2023-03-18T00:57:12.119Z,0.00
2023-03-18T00:58:12.108Z,0.00
2023-03-18T00:59:12.129Z,0.00
2023-03-18T01:00:12.088Z,0.00
2023-03-18T01:01:13.277Z,0.00
2023-03-18T01:02:12.158Z,0.00
2023-03-18T01:03:12.077Z,0.00
2023-03-18T01:04:12.064Z,0.00
2023-03-18T01:05:12.059Z,0.00
2023-03-18T01:06:12.064Z,0.00
2023-03-18T01:07:13.065Z,0.00
2023-03-18T01:08:12.043Z,0.00
2023-03-18T01:09:12.065Z,0.00
2023-03-18T01:10:12.075Z,0.00
2023-03-18T01:11:12.042Z,0.00
2023-03-18T01:12:12.055Z,0.00
2023-03-18T01:13:13.071Z,0.00
2023-03-18T01:14:12.019Z,0.00
2023-03-18T01:15:12.029Z,0.00
2023-03-18T01:16:12.030Z,0.00
2023-03-18T01:17:12.009Z,0.00
2023-03-18T01:18:12.035Z,0.00
2023-03-18T01:19:12.997Z,0.00
2023-03-18T01:20:11.983Z,0.00
2023-03-18T01:21:12.019Z,0.00
2023-03-18T01:22:11.982Z,0.00
2023-03-18T01:23:11.972Z,0.00
2023-03-18T01:24:11.965Z,0.00
2023-03-18T01:25:12.970Z,0.00
2023-03-18T01:26:11.947Z,0.00
2023-03-18T01:27:11.972Z,0.00
2023-03-18T01:28:12.005Z,0.00
2023-03-18T01:29:12.003Z,0.00
2023-03-18T01:30:11.945Z,0.00
2023-03-18T01:31:12.942Z,0.00
2023-03-18T01:32:11.920Z,0.00
2023-03-18T01:33:11.920Z,0.00
2023-03-18T01:34:11.913Z,0.00
2023-03-18T01:35:11.910Z,0.00
2023-03-18T01:36:11.949Z,0.00
2023-03-18T01:37:12.929Z,0.00
2023-03-18T01:38:11.886Z,0.00
2023-03-18T01:39:11.899Z,0.00
2023-03-18T01:40:11.877Z,0.00
2023-03-18T01:41:11.877Z,0.00
2023-03-18T01:42:11.871Z,0.00
2023-03-18T01:43:12.870Z,0.00
2023-03-18T01:44:11.860Z,0.00
2023-03-18T01:45:11.856Z,0.00
2023-03-18T01:46:11.858Z,0.00
2023-03-18T01:47:11.849Z,0.00
2023-03-18T01:48:11.840Z,0.00
2023-03-18T01:49:12.840Z,0.00
2023-03-18T01:50:11.820Z,0.00
2023-03-18T01:51:11.808Z,0.00
2023-03-18T01:52:11.803Z,0.00
2023-03-18T01:53:11.795Z,0.00
2023-03-18T01:54:11.793Z,0.00
2023-03-18T01:55:12.810Z,0.00
2023-03-18T01:56:11.782Z,0.00
2023-03-18T01:57:11.778Z,0.00
2023-03-18T01:58:11.779Z,0.00
2023-03-18T01:59:11.789Z,0.00
2023-03-18T02:00:11.804Z,0.00
2023-03-18T02:01:12.814Z,0.00
2023-03-18T02:02:11.820Z,0.00
2023-03-18T02:03:11.765Z,0.00
2023-03-18T02:04:11.770Z,0.00
2023-03-18T02:05:11.786Z,0.00
2023-03-18T02:06:11.724Z,0.00
2023-03-18T02:07:12.744Z,0.00
2023-03-18T02:08:11.714Z,0.00
2023-03-18T02:09:11.748Z,0.00
2023-03-18T02:10:11.738Z,0.00
2023-03-18T02:11:11.764Z,0.00
2023-03-18T02:12:11.707Z,0.00
2023-03-18T02:13:12.703Z,0.00
2023-03-18T02:14:11.682Z,0.00
2023-03-18T02:15:11.723Z,0.00
2023-03-18T02:16:11.714Z,0.00
2023-03-18T02:17:11.683Z,0.00
2023-03-18T02:18:11.662Z,0.00
2023-03-18T02:19:12.674Z,0.00
2023-03-18T02:20:11.654Z,0.00
2023-03-18T02:21:11.709Z,0.00
2023-03-18T02:22:11.649Z,0.00
2023-03-18T02:23:11.642Z,0.00
2023-03-18T02:24:11.639Z,0.00
2023-03-18T02:25:12.661Z,0.00
2023-03-18T02:26:11.648Z,0.00
2023-03-18T02:27:11.629Z,0.00
2023-03-18T02:28:11.623Z,0.00
2023-03-18T02:29:11.633Z,0.00
2023-03-18T02:30:11.630Z,0.00
2023-03-18T02:31:12.668Z,0.00
2023-03-18T02:32:11.601Z,0.00
2023-03-18T02:33:11.619Z,0.00
2023-03-18T02:34:11.586Z,0.00
2023-03-18T02:35:11.584Z,0.00
2023-03-18T02:36:11.571Z,0.00
2023-03-18T02:37:12.577Z,0.00
2023-03-18T02:38:11.564Z,0.00
2023-03-18T02:39:11.547Z,0.00
2023-03-18T02:40:11.545Z,0.00
2023-03-18T02:41:11.537Z,0.00
2023-03-18T02:42:11.556Z,0.00
2023-03-18T02:43:12.553Z,0.00
2023-03-18T02:44:11.537Z,0.00
2023-03-18T02:45:11.550Z,0.00
2023-03-18T02:46:11.576Z,0.00
2023-03-18T02:47:11.516Z,0.00
2023-03-18T02:48:11.497Z,0.00
2023-03-18T02:49:12.515Z,0.00
2023-03-18T02:50:11.498Z,0.00
2023-03-18T02:51:11.494Z,0.00
2023-03-18T02:52:11.483Z,0.00
2023-03-18T02:53:11.474Z,0.00
2023-03-18T02:54:11.468Z,0.00
2023-03-18T02:55:12.480Z,0.00
2023-03-18T02:56:11.457Z,0.00
2023-03-18T02:57:11.453Z,0.00
2023-03-18T02:58:11.456Z,0.00
2023-03-18T02:59:11.458Z,0.00
2023-03-18T03:00:11.436Z,0.00
2023-03-18T03:01:12.535Z,0.00
2023-03-18T03:02:11.471Z,0.00
2023-03-18T03:03:11.565Z,0.00
2023-03-18T03:04:11.413Z,0.00
2023-03-18T03:05:11.404Z,0.00
2023-03-18T03:06:11.413Z,0.00
2023-03-18T03:07:12.421Z,0.00
2023-03-18T03:08:11.398Z,0.00
2023-03-18T03:09:11.390Z,0.00
2023-03-18T03:10:11.376Z,0.00
2023-03-18T03:11:11.375Z,0.00
2023-03-18T03:12:11.365Z,0.00
2023-03-18T03:13:12.394Z,0.00
2023-03-18T03:14:11.368Z,0.00
2023-03-18T03:15:11.357Z,0.00
2023-03-18T03:16:11.412Z,0.00
2023-03-18T03:17:11.342Z,0.00
2023-03-18T03:18:11.341Z,0.00
2023-03-18T03:19:12.343Z,0.00
2023-03-18T03:20:11.342Z,0.00
2023-03-18T03:21:11.316Z,0.00
2023-03-18T03:22:11.335Z,0.00
2023-03-18T03:23:11.313Z,0.00
2023-03-18T03:24:11.320Z,0.00
2023-03-18T03:25:12.314Z,0.00
2023-03-18T03:26:11.304Z,0.00
2023-03-18T03:27:11.312Z,0.00
2023-03-18T03:28:11.311Z,0.00
2023-03-18T03:29:11.269Z,0.00
2023-03-18T03:30:11.275Z,0.00
2023-03-18T03:31:12.314Z,0.00
2023-03-18T03:32:11.261Z,0.00
2023-03-18T03:33:11.263Z,0.00
2023-03-18T03:34:11.252Z,0.00
2023-03-18T03:35:11.263Z,0.00
2023-03-18T03:36:11.278Z,0.00
2023-03-18T03:37:12.245Z,0.00
2023-03-18T03:38:11.234Z,0.00
2023-03-18T03:39:11.248Z,0.00
2023-03-18T03:40:11.217Z,0.00
2023-03-18T03:41:11.320Z,0.00
2023-03-18T03:42:11.208Z,0.00
2023-03-18T03:43:12.209Z,0.00
2023-03-18T03:44:11.203Z,0.00
2023-03-18T03:45:11.199Z,0.00
2023-03-18T03:46:11.266Z,0.00
2023-03-18T03:47:11.189Z,0.00
2023-03-18T03:48:11.193Z,0.00
2023-03-18T03:49:12.180Z,0.00
2023-03-18T03:50:11.163Z,0.00
2023-03-18T03:51:11.193Z,0.00
2023-03-18T03:52:11.166Z,0.00
2023-03-18T03:53:11.170Z,0.00
2023-03-18T03:54:11.139Z,0.00
2023-03-18T03:55:12.148Z,0.00
2023-03-18T03:56:11.145Z,0.00
2023-03-18T03:57:11.121Z,0.00
2023-03-18T03:58:11.120Z,0.00
2023-03-18T03:59:11.112Z,0.00
2023-03-18T04:00:11.130Z,0.00
2023-03-18T04:01:12.111Z,0.00
2023-03-18T04:02:11.092Z,0.00
2023-03-18T04:03:11.099Z,0.00
2023-03-18T04:04:11.136Z,0.00
2023-03-18T04:05:11.096Z,0.00
2023-03-18T04:06:11.085Z,0.00
2023-03-18T04:07:12.085Z,0.00
2023-03-18T04:08:11.064Z,0.00
2023-03-18T04:09:11.052Z,0.00
2023-03-18T04:10:11.058Z,0.00
2023-03-18T04:11:11.086Z,0.00
2023-03-18T04:12:11.047Z,0.00
2023-03-18T04:13:12.052Z,0.00
2023-03-18T04:14:11.037Z,0.00
2023-03-18T04:15:11.087Z,0.00
2023-03-18T04:16:11.056Z,0.00
2023-03-18T04:17:11.053Z,0.00
2023-03-18T04:18:11.012Z,0.00
2023-03-18T04:19:12.038Z,0.00
2023-03-18T04:20:10.999Z,0.00
2023-03-18T04:21:11.019Z,0.00
2023-03-18T04:22:10.994Z,0.00
2023-03-18T04:23:11.005Z,0.00
2023-03-18T04:24:11.010Z,0.00
2023-03-18T04:25:11.982Z,0.00
2023-03-18T04:26:10.969Z,0.00
2023-03-18T04:27:10.974Z,0.00
2023-03-18T04:28:10.962Z,0.00
2023-03-18T04:29:10.943Z,0.00
2023-03-18T04:30:10.965Z,0.00
2023-03-18T04:31:11.998Z,0.00
2023-03-18T04:32:10.936Z,0.00
2023-03-18T04:33:11.109Z,0.00
2023-03-18T04:34:10.936Z,0.00
2023-03-18T04:35:10.916Z,0.00
2023-03-18T04:36:11.000Z,0.00
2023-03-18T04:37:11.925Z,0.00
2023-03-18T04:38:10.902Z,0.00
2023-03-18T04:39:10.924Z,0.00
2023-03-18T04:40:10.892Z,0.00
2023-03-18T04:41:10.872Z,0.00
2023-03-18T04:42:10.875Z,0.00
2023-03-18T04:43:11.884Z,0.00
2023-03-18T04:44:10.873Z,0.00
2023-03-18T04:45:10.858Z,0.00
2023-03-18T04:46:10.927Z,0.00
2023-03-18T04:47:10.849Z,0.00
2023-03-18T04:48:10.844Z,0.00
2023-03-18T04:49:11.845Z,0.00
2023-03-18T04:50:10.833Z,0.00
2023-03-18T04:51:10.820Z,0.00
2023-03-18T04:52:10.813Z,0.00
2023-03-18T04:53:10.807Z,4.00
2023-03-18T04:54:10.811Z,4.00
2023-03-18T04:55:11.817Z,0.00
2023-03-18T04:56:10.802Z,4.00
2023-03-18T04:57:10.779Z,8.00
2023-03-18T04:58:10.784Z,4.00
2023-03-18T04:59:10.794Z,4.00
2023-03-18T05:00:11.556Z,8.00
2023-03-18T05:01:11.851Z,12.00
2023-03-18T05:02:10.789Z,12.00
2023-03-18T05:03:10.787Z,16.00
2023-03-18T05:04:10.880Z,16.00
2023-03-18T05:05:10.763Z,20.00
2023-03-18T05:06:10.735Z,20.00
2023-03-18T05:07:11.763Z,24.00
2023-03-18T05:08:10.738Z,28.00
2023-03-18T05:09:10.719Z,28.00
2023-03-18T05:10:10.750Z,36.00
2023-03-18T05:11:10.932Z,40.00
2023-03-18T05:12:10.713Z,48.00
2023-03-18T05:13:11.704Z,52.00
2023-03-18T05:14:10.695Z,60.00
2023-03-18T05:15:12.034Z,68.00
2023-03-18T05:16:10.704Z,76.00
2023-03-18T05:17:10.684Z,88.00
2023-03-18T05:18:10.692Z,100.00
2023-03-18T05:19:11.676Z,108.00
2023-03-18T05:20:10.682Z,120.00
2023-03-18T05:21:10.657Z,132.00
2023-03-18T05:22:10.699Z,144.00
2023-03-18T05:23:10.658Z,160.00
2023-03-18T05:24:10.661Z,184.00
2023-03-18T05:25:11.690Z,204.00
2023-03-18T05:26:10.641Z,228.00
2023-03-18T05:27:10.711Z,260.00
2023-03-18T05:28:11.366Z,284.00
2023-03-18T05:29:10.612Z,308.00
2023-03-18T05:30:10.606Z,328.00
2023-03-18T05:31:11.613Z,348.00
2023-03-18T05:32:10.592Z,368.00
2023-03-18T05:33:10.697Z,388.00
2023-03-18T05:34:10.602Z,404.00
2023-03-18T05:35:10.607Z,424.00
2023-03-18T05:36:10.656Z,444.00
2023-03-18T05:37:11.579Z,476.00
2023-03-18T05:38:10.567Z,508.00
2023-03-18T05:39:10.555Z,552.00
2023-03-18T05:40:10.569Z,600.00
2023-03-18T05:41:10.539Z,652.00
2023-03-18T05:42:10.588Z,708.00
2023-03-18T05:43:11.559Z,760.00
2023-03-18T05:44:10.547Z,800.00
2023-03-18T05:45:10.530Z,828.00
2023-03-18T05:46:10.668Z,852.00
2023-03-18T05:47:10.507Z,876.00
2023-03-18T05:48:10.514Z,892.00
2023-03-18T05:49:11.520Z,916.00
2023-03-18T05:50:10.507Z,940.00
2023-03-18T05:51:10.495Z,968.00
2023-03-18T05:52:10.535Z,1000.00
2023-03-18T05:53:10.498Z,1040.00
2023-03-18T05:54:10.476Z,1096.00
2023-03-18T05:55:11.487Z,1164.00
2023-03-18T05:56:10.459Z,1236.00
2023-03-18T05:57:10.460Z,1288.00
2023-03-18T05:58:10.464Z,1340.00
2023-03-18T05:59:10.448Z,1384.00
2023-03-18T06:00:10.467Z,1428.00
2023-03-18T06:01:11.465Z,1488.00
2023-03-18T06:02:10.487Z,1560.00
2023-03-18T06:03:10.471Z,1624.00
2023-03-18T06:04:10.426Z,1688.00
2023-03-18T06:05:10.438Z,1736.00
2023-03-18T06:06:10.421Z,1780.00
2023-03-18T06:07:11.421Z,1828.00
2023-03-18T06:08:10.410Z,1884.00
2023-03-18T06:09:10.401Z,1932.00
2023-03-18T06:10:10.401Z,1980.00
2023-03-18T06:11:10.390Z,2024.00
2023-03-18T06:12:10.369Z,2064.00
2023-03-18T06:13:11.380Z,2104.00
2023-03-18T06:14:10.371Z,2132.00
2023-03-18T06:15:10.363Z,2156.00
2023-03-18T06:16:10.456Z,2212.00
2023-03-18T06:17:10.391Z,2328.00
2023-03-18T06:18:10.375Z,2488.00
2023-03-18T06:19:11.355Z,2636.00
2023-03-18T06:20:10.348Z,2756.00
2023-03-18T06:21:10.416Z,2828.00
2023-03-18T06:22:10.327Z,2856.00
2023-03-18T06:23:10.338Z,2856.00
2023-03-18T06:24:10.323Z,2852.00
2023-03-18T06:25:11.321Z,2840.00
2023-03-18T06:26:10.322Z,2828.00
2023-03-18T06:27:10.294Z,2832.00
2023-03-18T06:28:10.362Z,2844.00
2023-03-18T06:29:10.287Z,2828.00
2023-03-18T06:30:10.286Z,2796.00
2023-03-18T06:31:11.396Z,2792.00
2023-03-18T06:32:10.282Z,2844.00
2023-03-18T06:33:10.332Z,2928.00
2023-03-18T06:34:10.310Z,2992.00
2023-03-18T06:35:10.311Z,2984.00
2023-03-18T06:36:10.319Z,2984.00
2023-03-18T06:37:11.259Z,3004.00
2023-03-18T06:38:10.255Z,2996.00
2023-03-18T06:39:10.246Z,2948.00
2023-03-18T06:40:10.249Z,2868.00
2023-03-18T06:41:10.254Z,2792.00
2023-03-18T06:42:10.258Z,2724.00
2023-03-18T06:43:11.235Z,2668.00
2023-03-18T06:44:10.206Z,2592.00
2023-03-18T06:45:10.215Z,2504.00
2023-03-18T06:46:10.295Z,2468.00
2023-03-18T06:47:10.207Z,2496.00
2023-03-18T06:48:10.191Z,2604.00
2023-03-18T06:49:11.205Z,2780.00
2023-03-18T06:50:10.194Z,2992.00
2023-03-18T06:51:10.198Z,3216.00
2023-03-18T06:52:10.182Z,3468.00
2023-03-18T06:53:10.162Z,3748.00
2023-03-18T06:54:10.190Z,4064.00
2023-03-18T06:55:11.165Z,4412.00
2023-03-18T06:56:10.138Z,4756.00
2023-03-18T06:57:10.141Z,5036.00
2023-03-18T06:58:10.201Z,5220.00
2023-03-18T06:59:10.149Z,5356.00
2023-03-18T07:00:10.129Z,5456.00
2023-03-18T07:01:11.166Z,5492.00
2023-03-18T07:02:10.112Z,5600.00
2023-03-18T07:03:10.106Z,5688.00
2023-03-18T07:04:10.135Z,5784.00
2023-03-18T07:05:10.120Z,5804.00
2023-03-18T07:06:10.100Z,5740.00
2023-03-18T07:07:11.127Z,5732.00
2023-03-18T07:08:10.113Z,5800.00
2023-03-18T07:09:10.077Z,5972.00
2023-03-18T07:10:10.076Z,6108.00
2023-03-18T07:11:10.069Z,6280.00
2023-03-18T07:12:10.064Z,6452.00
2023-03-18T07:13:11.074Z,6608.00
2023-03-18T07:14:10.061Z,6768.00
2023-03-18T07:15:10.073Z,6972.00
2023-03-18T07:16:10.111Z,7236.00
2023-03-18T07:17:10.041Z,7592.00
2023-03-18T07:18:12.059Z,8104.00
2023-03-18T07:19:11.046Z,9828.00
2023-03-18T07:20:10.020Z,13112.00
2023-03-18T07:21:10.018Z,14792.00
2023-03-18T07:22:10.023Z,16036.00
2023-03-18T07:23:10.014Z,13984.00
2023-03-18T07:24:10.023Z,12676.00
2023-03-18T07:25:11.034Z,12760.00
2023-03-18T07:26:10.006Z,15308.00
2023-03-18T07:27:09.993Z,15792.00
2023-03-18T07:28:09.998Z,19872.00
2023-03-18T07:29:10.000Z,16448.00
2023-03-18T07:30:10.044Z,15892.00
2023-03-18T07:31:11.069Z,17024.00
2023-03-18T07:32:10.015Z,16768.00
2023-03-18T07:33:10.093Z,17056.00
2023-03-18T07:34:10.025Z,21120.00
2023-03-18T07:35:09.979Z,22464.00
2023-03-18T07:36:10.091Z,20576.00
2023-03-18T07:37:10.980Z,21088.00
2023-03-18T07:38:09.949Z,23680.00
2023-03-18T07:39:09.964Z,27584.00
2023-03-18T07:40:09.945Z,27936.00
2023-03-18T07:41:09.960Z,20928.00
2023-03-18T07:42:09.982Z,27488.00
2023-03-18T07:43:10.987Z,32960.00
2023-03-18T07:44:09.959Z,32160.00
2023-03-18T07:45:09.959Z,33696.00
2023-03-18T07:46:09.972Z,32288.00
2023-03-18T07:47:09.972Z,31552.00
2023-03-18T07:48:09.934Z,26880.00
2023-03-18T07:49:10.942Z,27904.00
2023-03-18T07:50:09.960Z,34080.00
2023-03-18T07:51:09.956Z,39680.00
2023-03-18T07:52:09.931Z,42656.00
2023-03-18T07:53:09.941Z,45792.00
2023-03-18T07:54:09.954Z,53280.00
2023-03-18T07:55:10.947Z,53792.00
2023-03-18T07:56:09.951Z,44992.00
2023-03-18T07:57:09.988Z,59264.00
2023-03-18T07:58:09.931Z,62432.00
2023-03-18T07:59:09.934Z,58624.00
2023-03-18T08:00:09.928Z,53696.00
2023-03-18T08:01:10.948Z,63808.00
2023-03-18T08:02:09.976Z,60416.00
2023-03-18T08:03:09.946Z,65344.00
2023-03-18T08:04:09.999Z,28096.00
2023-03-18T08:05:10.018Z,28128.00
2023-03-18T08:06:10.003Z,47040.00
2023-03-18T08:07:10.983Z,80320.00
2023-03-18T08:08:09.968Z,58912.00
2023-03-18T08:09:10.031Z,63392.00
2023-03-18T08:10:09.963Z,68448.00
2023-03-18T08:11:09.974Z,74176.00
2023-03-18T08:12:09.966Z,65600.00
2023-03-18T08:13:11.024Z,55040.00
2023-03-18T08:14:10.005Z,68128.00
2023-03-18T08:15:10.000Z,75904.00
2023-03-18T08:16:10.065Z,82752.00
2023-03-18T08:17:10.001Z,80192.00
2023-03-18T08:18:10.014Z,74592.00
2023-03-18T08:19:11.050Z,57120.00
2023-03-18T08:20:10.086Z,60800.00
2023-03-18T08:21:10.035Z,72960.00
2023-03-18T08:22:10.032Z,73792.00
2023-03-18T08:23:10.048Z,59840.00
2023-03-18T08:24:10.040Z,53408.00
2023-03-18T08:25:11.066Z,53408.00
2023-03-18T08:26:10.073Z,66784.00
2023-03-18T08:27:10.079Z,68800.00
2023-03-18T08:28:10.072Z,57600.00
2023-03-18T08:29:10.183Z,70240.00
2023-03-18T08:30:10.161Z,58176.00
2023-03-18T08:31:11.200Z,48864.00
2023-03-18T08:32:10.101Z,45632.00
2023-03-18T08:33:10.260Z,41792.00
2023-03-18T08:34:10.220Z,42176.00
2023-03-18T08:35:10.136Z,32096.00
2023-03-18T08:36:10.211Z,25088.00
2023-03-18T08:37:11.170Z,23584.00
2023-03-18T08:38:10.179Z,18912.00
2023-03-18T08:39:10.154Z,22048.00
2023-03-18T08:40:10.198Z,21792.00
2023-03-18T08:41:10.205Z,13564.00
2023-03-18T08:42:10.222Z,13892.00
2023-03-18T08:43:11.222Z,14572.00
2023-03-18T08:44:10.274Z,12648.00
2023-03-18T08:45:10.246Z,12996.00
2023-03-18T08:46:10.268Z,13532.00
2023-03-18T08:47:10.240Z,13032.00
2023-03-18T08:48:10.288Z,13168.00
2023-03-18T08:49:11.347Z,11096.00
2023-03-18T08:50:10.258Z,9972.00
2023-03-18T08:51:10.265Z,10036.00
2023-03-18T08:52:10.254Z,9776.00
2023-03-18T08:53:10.267Z,8744.00
2023-03-18T08:54:10.272Z,8188.00
2023-03-18T08:55:11.351Z,9028.00
2023-03-18T08:56:10.275Z,8876.00
2023-03-18T08:57:10.307Z,9064.00
2023-03-18T08:58:10.301Z,8772.00
2023-03-18T08:59:10.327Z,8864.00
2023-03-18T09:00:10.286Z,8304.00
2023-03-18T09:01:12.080Z,8304.00
2023-03-18T09:02:10.309Z,8144.00
2023-03-18T09:03:10.450Z,7872.00
2023-03-18T09:04:10.325Z,7768.00
2023-03-18T09:05:10.287Z,8020.00
2023-03-18T09:06:10.356Z,8300.00
2023-03-18T09:07:11.305Z,7952.00
2023-03-18T09:08:10.299Z,7460.00
2023-03-18T09:09:10.286Z,7400.00
2023-03-18T09:10:10.291Z,7048.00
2023-03-18T09:11:10.382Z,7408.00
2023-03-18T09:12:10.292Z,7400.00
2023-03-18T09:13:11.348Z,7924.00
2023-03-18T09:14:10.487Z,8572.00
2023-03-18T09:15:10.314Z,9896.00
2023-03-18T09:16:10.300Z,9948.00
2023-03-18T09:17:10.331Z,10872.00
2023-03-18T09:18:12.170Z,10992.00
2023-03-18T09:19:11.305Z,11308.00
2023-03-18T09:20:10.292Z,11160.00
2023-03-18T09:21:10.292Z,10212.00
2023-03-18T09:22:10.307Z,9800.00
2023-03-18T09:23:10.347Z,9260.00
2023-03-18T09:24:10.284Z,9244.00
2023-03-18T09:25:11.300Z,8460.00
2023-03-18T09:26:10.289Z,7464.00
2023-03-18T09:27:10.314Z,7672.00
2023-03-18T09:28:10.306Z,7452.00
2023-03-18T09:29:10.301Z,7212.00
2023-03-18T09:30:10.286Z,7544.00
2023-03-18T09:31:11.334Z,7888.00
2023-03-18T09:32:10.341Z,7948.00
2023-03-18T09:33:10.386Z,8488.00
2023-03-18T09:34:10.275Z,8468.00
2023-03-18T09:35:13.032Z,8448.00
2023-03-18T09:36:10.337Z,8508.00
2023-03-18T09:37:11.293Z,8656.00
2023-03-18T09:38:10.288Z,8580.00
2023-03-18T09:39:10.301Z,8624.00
2023-03-18T09:40:10.304Z,8588.00
2023-03-18T09:41:10.280Z,8260.00
2023-03-18T09:42:10.302Z,8340.00
2023-03-18T09:43:11.290Z,8300.00
2023-03-18T09:44:10.288Z,8332.00
2023-03-18T09:45:10.284Z,8176.00
2023-03-18T09:46:10.392Z,8100.00
2023-03-18T09:47:10.525Z,8004.00
2023-03-18T09:48:10.267Z,7860.00
2023-03-18T09:49:11.366Z,7888.00
2023-03-18T09:50:10.262Z,7888.00
2023-03-18T09:51:10.286Z,7940.00
2023-03-18T09:52:10.274Z,7896.00
2023-03-18T09:53:10.278Z,7536.00
2023-03-18T09:54:10.262Z,7552.00
2023-03-18T09:55:11.269Z,7704.00
2023-03-18T09:56:10.286Z,7816.00
2023-03-18T09:57:10.292Z,7768.00
2023-03-18T09:58:10.253Z,7984.00
2023-03-18T09:59:10.270Z,7800.00
2023-03-18T10:00:10.286Z,7568.00
2023-03-18T10:01:11.286Z,7608.00
2023-03-18T10:02:10.268Z,7564.00
2023-03-18T10:03:10.326Z,7256.00
2023-03-18T10:04:10.362Z,7168.00
2023-03-18T10:05:10.265Z,7012.00
2023-03-18T10:06:10.245Z,7496.00
2023-03-18T10:07:11.254Z,6952.00
2023-03-18T10:08:10.268Z,6748.00
2023-03-18T10:09:10.275Z,6740.00
2023-03-18T10:10:10.263Z,6996.00
2023-03-18T10:11:10.305Z,7292.00
2023-03-18T10:12:10.257Z,7552.00
2023-03-18T10:13:11.252Z,7292.00
2023-03-18T10:14:10.257Z,7076.00
2023-03-18T10:15:10.268Z,6988.00
2023-03-18T10:16:10.288Z,6900.00
2023-03-18T10:17:10.264Z,6716.00
2023-03-18T10:18:10.269Z,6696.00
2023-03-18T10:19:11.263Z,6744.00
2023-03-18T10:20:10.261Z,6780.00
2023-03-18T10:21:10.253Z,6700.00
2023-03-18T10:22:10.269Z,6372.00
2023-03-18T10:23:10.267Z,6552.00
2023-03-18T10:24:10.251Z,6444.00
2023-03-18T10:25:11.263Z,6384.00
2023-03-18T10:26:10.267Z,6400.00
2023-03-18T10:27:10.238Z,6472.00
2023-03-18T10:28:10.263Z,6196.00
2023-03-18T10:29:10.270Z,6212.00
2023-03-18T10:30:10.288Z,6416.00
2023-03-18T10:31:11.305Z,6336.00
2023-03-18T10:32:10.247Z,6172.00
2023-03-18T10:33:10.270Z,6208.00
2023-03-18T10:34:10.255Z,6452.00
2023-03-18T10:35:10.221Z,6388.00
2023-03-18T10:36:10.337Z,6236.00
2023-03-18T10:37:11.254Z,6144.00
2023-03-18T10:38:10.261Z,6344.00
2023-03-18T10:39:10.247Z,6284.00
2023-03-18T10:40:10.262Z,6352.00
2023-03-18T10:41:10.226Z,6268.00
2023-03-18T10:42:10.250Z,6088.00
2023-03-18T10:43:11.286Z,6224.00
2023-03-18T10:44:10.210Z,5944.00
2023-03-18T10:45:10.257Z,6056.00
2023-03-18T10:46:10.319Z,6152.00
2023-03-18T10:47:10.377Z,6180.00
2023-03-18T10:48:10.214Z,6144.00
2023-03-18T10:49:11.226Z,6096.00
2023-03-18T10:50:10.222Z,5932.00
2023-03-18T10:51:10.269Z,5792.00
2023-03-18T10:52:10.216Z,5620.00
2023-03-18T10:53:10.278Z,5460.00
2023-03-18T10:54:10.209Z,5456.00
2023-03-18T10:55:11.232Z,5696.00
2023-03-18T10:56:10.219Z,5924.00
2023-03-18T10:57:10.220Z,5792.00
2023-03-18T10:58:10.196Z,5808.00
2023-03-18T10:59:10.204Z,5736.00
2023-03-18T11:00:10.198Z,5804.00
2023-03-18T11:01:11.217Z,5936.00
2023-03-18T11:02:10.263Z,6088.00
2023-03-18T11:03:10.231Z,6116.00
2023-03-18T11:04:10.205Z,6160.00
2023-03-18T11:05:10.201Z,6164.00
2023-03-18T11:06:10.202Z,6052.00
2023-03-18T11:07:11.246Z,5820.00
2023-03-18T11:08:10.195Z,5616.00
2023-03-18T11:09:10.204Z,5400.00
2023-03-18T11:10:10.186Z,5352.00
2023-03-18T11:11:10.210Z,5340.00
2023-03-18T11:12:10.190Z,5476.00
2023-03-18T11:13:11.233Z,5652.00
2023-03-18T11:14:10.185Z,5940.00
2023-03-18T11:15:10.202Z,6020.00
2023-03-18T11:16:10.188Z,6076.00
2023-03-18T11:17:10.183Z,6244.00
2023-03-18T11:18:10.186Z,6404.00
2023-03-18T11:19:11.226Z,6364.00
2023-03-18T11:20:10.177Z,6212.00
2023-03-18T11:21:10.178Z,6116.00
2023-03-18T11:22:10.263Z,6076.00
2023-03-18T11:23:10.184Z,5984.00
2023-03-18T11:24:10.203Z,5948.00
2023-03-18T11:25:11.190Z,5900.00
2023-03-18T11:26:10.177Z,5712.00
2023-03-18T11:27:10.182Z,5560.00
2023-03-18T11:28:10.170Z,5496.00
2023-03-18T11:29:10.166Z,5456.00
2023-03-18T11:30:10.179Z,5444.00
2023-03-18T11:31:11.226Z,5384.00
2023-03-18T11:32:10.177Z,5492.00
2023-03-18T11:33:10.316Z,5428.00
2023-03-18T11:34:10.183Z,5264.00
2023-03-18T11:35:10.198Z,5320.00
2023-03-18T11:36:10.174Z,5420.00
2023-03-18T11:37:11.175Z,5472.00
2023-03-18T11:38:10.178Z,5404.00
2023-03-18T11:39:10.166Z,5428.00
2023-03-18T11:40:10.166Z,5428.00
2023-03-18T11:41:10.164Z,5296.00
2023-03-18T11:42:10.168Z,5220.00
2023-03-18T11:43:11.180Z,5308.00
2023-03-18T11:44:10.158Z,5452.00
2023-03-18T11:45:10.149Z,5520.00
2023-03-18T11:46:10.161Z,5500.00
2023-03-18T11:47:10.160Z,5516.00
2023-03-18T11:48:10.154Z,5476.00
2023-03-18T11:49:11.179Z,5400.00
2023-03-18T11:50:10.143Z,5260.00
2023-03-18T11:51:10.154Z,5100.00
2023-03-18T11:52:10.149Z,5492.00
2023-03-18T11:53:10.159Z,5808.00
2023-03-18T11:54:10.140Z,6296.00
2023-03-18T11:55:11.152Z,6360.00
2023-03-18T11:56:10.152Z,6240.00
2023-03-18T11:57:10.147Z,6176.00
2023-03-18T11:58:10.145Z,6176.00
2023-03-18T11:59:10.143Z,6180.00
2023-03-18T12:00:10.162Z,6020.00
2023-03-18T12:01:11.152Z,5680.00
2023-03-18T12:02:10.253Z,5560.00
2023-03-18T12:03:10.134Z,5500.00
2023-03-18T12:04:10.175Z,5568.00
2023-03-18T12:05:10.209Z,5580.00
2023-03-18T12:06:10.149Z,5520.00
2023-03-18T12:07:11.140Z,4436.00
2023-03-18T12:08:10.145Z,4360.00
2023-03-18T12:09:10.129Z,5380.00
2023-03-18T12:10:10.131Z,5404.00
2023-03-18T12:11:10.130Z,5492.00
2023-03-18T12:12:10.150Z,5496.00
2023-03-18T12:13:11.294Z,5064.00
2023-03-18T12:14:10.136Z,5616.00
2023-03-18T12:15:10.148Z,5756.00
2023-03-18T12:16:10.209Z,4800.00
2023-03-18T12:17:10.129Z,5732.00
2023-03-18T12:18:10.159Z,5344.00
2023-03-18T12:19:11.298Z,5564.00
2023-03-18T12:20:10.154Z,5380.00
2023-03-18T12:21:10.187Z,5164.00
2023-03-18T12:22:10.132Z,5064.00
2023-03-18T12:23:10.124Z,4788.00
2023-03-18T12:24:10.136Z,4796.00
2023-03-18T12:25:11.129Z,4856.00
2023-03-18T12:26:10.291Z,4976.00
2023-03-18T12:27:10.116Z,4912.00
2023-03-18T12:28:10.161Z,5056.00
2023-03-18T12:29:10.135Z,5360.00
2023-03-18T12:30:10.187Z,5276.00
2023-03-18T12:31:11.129Z,5324.00
2023-03-18T12:32:10.124Z,5328.00